sensor_id;sensor_type;location;lat;lon;timestamp;pressure;altitude;pressure_sealevel;temperature;humidity
68199;BME280;55021;51.554;17.044;2023-06-22T00:04:07;100793.72;;;20.56;78.90
68199;BME280;55021;51.554;17.044;2023-06-22T00:19:10;100793.53;;;20.51;75.34
68199;BME280;55021;51.554;17.044;2023-06-22T00:34:15;100815.88;;;20.36;74.42
68199;BME280;55021;51.554;17.044;2023-06-22T00:49:18;100824.38;;;20.28;72.68
68199;BME280;55021;51.554;17.044;2023-06-22T01:04:24;100821.19;;;20.24;76.06
68199;BME280;55021;51.554;17.044;2023-06-22T01:19:35;100830.56;;;19.71;71.33
68199;BME280;55021;51.554;17.044;2023-06-22T01:34:41;100790.97;;;18.93;78.73
68199;BME280;55021;51.554;17.044;2023-06-22T01:49:44;100831.41;;;19.26;77.11
68199;BME280;55021;51.554;17.044;2023-06-22T02:04:52;100854.91;;;19.48;74.92
68199;BME280;55021;51.554;17.044;2023-06-22T02:19:57;100852.94;;;19.02;75.10
68199;BME280;55021;51.554;17.044;2023-06-22T02:34:59;100879.09;;;18.92;76.27
68199;BME280;55021;51.554;17.044;2023-06-22T02:50:02;100898.63;;;19.23;74.85
68199;BME280;55021;51.554;17.044;2023-06-22T03:05:19;100899.34;;;18.84;74.23
68199;BME280;55021;51.554;17.044;2023-06-22T03:20:22;100883.78;;;18.50;82.43
68199;BME280;55021;51.554;17.044;2023-06-22T03:35:35;100907.16;;;20.46;71.14
68199;BME280;55021;51.554;17.044;2023-06-22T03:50:37;100922.47;;;22.00;67.23
68199;BME280;55021;51.554;17.044;2023-06-22T04:05:40;100932.69;;;21.93;70.23
68199;BME280;55021;51.554;17.044;2023-06-22T04:20:43;100953.09;;;21.67;71.88
68199;BME280;55021;51.554;17.044;2023-06-22T04:35:49;100972.06;;;21.44;74.68
68199;BME280;55021;51.554;17.044;2023-06-22T04:51:22;100914.69;;;21.59;74.62
68199;BME280;55021;51.554;17.044;2023-06-22T05:06:25;100956.41;;;23.70;68.40
68199;BME280;55021;51.554;17.044;2023-06-22T05:21:27;100933.41;;;24.34;64.74
68199;BME280;55021;51.554;17.044;2023-06-22T05:36:29;100902.53;;;23.85;65.12
68199;BME280;55021;51.554;17.044;2023-06-22T05:51:46;100945.81;;;24.90;60.98
68199;BME280;55021;51.554;17.044;2023-06-22T06:06:58;100963.19;;;24.51;59.69
68199;BME280;55021;51.554;17.044;2023-06-22T06:22:03;100981.72;;;24.15;60.63
68199;BME280;55021;51.554;17.044;2023-06-22T06:37:06;100997.06;;;24.76;56.99
68199;BME280;55021;51.554;17.044;2023-06-22T06:52:14;101001.63;;;25.85;52.78
68199;BME280;55021;51.554;17.044;2023-06-22T07:07:17;101012.28;;;26.21;49.93
68199;BME280;55021;51.554;17.044;2023-06-22T07:22:22;101018.09;;;26.86;48.08
68199;BME280;55021;51.554;17.044;2023-06-22T07:37:29;101023.97;;;27.50;46.39
68199;BME280;55021;51.554;17.044;2023-06-22T07:52:32;101019.00;;;27.52;47.32
68199;BME280;55021;51.554;17.044;2023-06-22T08:07:37;100999.00;;;27.11;47.78
68199;BME280;55021;51.554;17.044;2023-06-22T08:22:41;100995.31;;;28.66;45.27
68199;BME280;55021;51.554;17.044;2023-06-22T08:37:45;100984.09;;;27.93;45.23
68199;BME280;55021;51.554;17.044;2023-06-22T08:52:49;100956.09;;;28.46;44.09
68199;BME280;55021;51.554;17.044;2023-06-22T09:07:52;100926.72;;;28.28;44.27
68199;BME280;55021;51.554;17.044;2023-06-22T09:22:54;100950.09;;;28.64;42.77
68199;BME280;55021;51.554;17.044;2023-06-22T09:37:57;100964.91;;;29.17;39.98
68199;BME280;55021;51.554;17.044;2023-06-22T09:53:00;100950.78;;;28.13;40.13
68199;BME280;55021;51.554;17.044;2023-06-22T10:08:03;100948.59;;;29.61;39.76
68199;BME280;55021;51.554;17.044;2023-06-22T10:23:06;100901.06;;;29.56;35.52
68199;BME280;55021;51.554;17.044;2023-06-22T10:38:19;100926.81;;;29.88;32.76
68199;BME280;55021;51.554;17.044;2023-06-22T10:53:24;100913.94;;;29.77;33.56
68199;BME280;55021;51.554;17.044;2023-06-22T11:08:27;100872.47;;;30.69;31.46
68199;BME280;55021;51.554;17.044;2023-06-22T11:23:30;100862.91;;;30.81;32.05
68199;BME280;55021;51.554;17.044;2023-06-22T11:38:36;100867.03;;;31.52;29.97
68199;BME280;55021;51.554;17.044;2023-06-22T11:53:39;100863.50;;;30.73;30.53
68199;BME280;55021;51.554;17.044;2023-06-22T12:08:41;100821.84;;;31.93;27.54
68199;BME280;55021;51.554;17.044;2023-06-22T12:23:44;100813.53;;;31.82;29.79
68199;BME280;55021;51.554;17.044;2023-06-22T12:38:47;100781.38;;;30.28;31.30
68199;BME280;55021;51.554;17.044;2023-06-22T12:53:50;100786.03;;;32.37;27.94
68199;BME280;55021;51.554;17.044;2023-06-22T13:08:52;100777.53;;;31.95;27.82
68199;BME280;55021;51.554;17.044;2023-06-22T13:23:54;100748.13;;;31.30;29.49
68199;BME280;55021;51.554;17.044;2023-06-22T13:38:57;100777.66;;;31.79;27.49
68199;BME280;55021;51.554;17.044;2023-06-22T13:53:59;100759.25;;;30.96;28.31
68199;BME280;55021;51.554;17.044;2023-06-22T14:09:02;100761.63;;;30.74;28.38
68199;BME280;55021;51.554;17.044;2023-06-22T14:24:04;100737.50;;;30.83;28.87
68199;BME280;55021;51.554;17.044;2023-06-22T14:39:07;100740.34;;;31.16;29.99
68199;BME280;55021;51.554;17.044;2023-06-22T14:54:10;100712.78;;;30.90;30.67
68199;BME280;55021;51.554;17.044;2023-06-22T15:09:15;100711.28;;;29.89;32.45
68199;BME280;55021;51.554;17.044;2023-06-22T15:24:17;100691.78;;;29.09;32.00
68199;BME280;55021;51.554;17.044;2023-06-22T15:39:20;100690.38;;;29.57;32.48
68199;BME280;55021;51.554;17.044;2023-06-22T15:54:22;100659.41;;;30.27;31.23
68199;BME280;55021;51.554;17.044;2023-06-22T16:09:25;100628.66;;;28.98;34.79
68199;BME280;55021;51.554;17.044;2023-06-22T16:24:27;100629.78;;;29.27;33.02
68199;BME280;55021;51.554;17.044;2023-06-22T16:39:30;100611.34;;;29.06;36.10
68199;BME280;55021;51.554;17.044;2023-06-22T16:54:32;100619.66;;;28.35;36.51
68199;BME280;55021;51.554;17.044;2023-06-22T17:09:37;100594.63;;;28.90;34.54
68199;BME280;55021;51.554;17.044;2023-06-22T17:24:40;100565.81;;;28.34;35.44
68199;BME280;55021;51.554;17.044;2023-06-22T17:39:51;100567.47;;;27.58;37.56
68199;BME280;55021;51.554;17.044;2023-06-22T17:54:55;100533.88;;;27.80;37.21
68199;BME280;55021;51.554;17.044;2023-06-22T18:09:58;100544.34;;;27.53;37.96
68199;BME280;55021;51.554;17.044;2023-06-22T18:25:02;100529.69;;;26.79;37.15
68199;BME280;55021;51.554;17.044;2023-06-22T18:40:06;100498.66;;;26.97;36.60
68199;BME280;55021;51.554;17.044;2023-06-22T18:55:13;100497.66;;;26.39;37.59
68199;BME280;55021;51.554;17.044;2023-06-22T19:10:23;100490.03;;;25.98;38.02
68199;BME280;55021;51.554;17.044;2023-06-22T19:25:27;100488.56;;;25.42;39.60
68199;BME280;55021;51.554;17.044;2023-06-22T19:40:30;100471.03;;;24.98;39.80
68199;BME280;55021;51.554;17.044;2023-06-22T19:55:32;100457.03;;;24.71;40.99
68199;BME280;55021;51.554;17.044;2023-06-22T20:10:38;100451.59;;;24.60;41.00
68199;BME280;55021;51.554;17.044;2023-06-22T20:25:41;100472.25;;;24.02;42.45
68199;BME280;55021;51.554;17.044;2023-06-22T20:40:44;100444.72;;;23.39;44.92
68199;BME280;55021;51.554;17.044;2023-06-22T20:55:46;100430.41;;;22.79;46.46
68199;BME280;55021;51.554;17.044;2023-06-22T21:10:49;100418.78;;;22.66;47.59
68199;BME280;55021;51.554;17.044;2023-06-22T21:25:51;100420.22;;;23.31;46.53
68199;BME280;55021;51.554;17.044;2023-06-22T21:40:53;100416.47;;;23.54;45.52
68199;BME280;55021;51.554;17.044;2023-06-22T21:55:56;100372.63;;;23.62;44.81
68199;BME280;55021;51.554;17.044;2023-06-22T22:10:58;100321.03;;;23.56;44.59
68199;BME280;55021;51.554;17.044;2023-06-22T22:26:00;100269.47;;;23.05;44.40
68199;BME280;55021;51.554;17.044;2023-06-22T22:41:03;100279.00;;;23.59;43.33
68199;BME280;55021;51.554;17.044;2023-06-22T22:56:05;100256.09;;;23.14;43.96
68199;BME280;55021;51.554;17.044;2023-06-22T23:11:08;100268.13;;;23.53;42.56
68199;BME280;55021;51.554;17.044;2023-06-22T23:26:10;100254.94;;;23.43;43.09
68199;BME280;55021;51.554;17.044;2023-06-22T23:41:13;100249.75;;;23.63;42.75
68199;BME280;55021;51.554;17.044;2023-06-22T23:56:15;100226.41;;;23.76;42.41
